createdAt,value
2022-11-13T00:00:39.582Z,99.99
2022-11-13T00:01:39.535Z,99.99
2022-11-13T00:02:39.568Z,99.99
2022-11-13T00:03:39.489Z,99.99
2022-11-13T00:04:39.581Z,99.99
2022-11-13T00:05:39.628Z,99.99
2022-11-13T00:06:39.649Z,99.99
2022-11-13T00:07:39.601Z,99.99
2022-11-13T00:08:39.486Z,99.99
2022-11-13T00:09:39.570Z,99.99
2022-11-13T00:10:39.422Z,99.99
2022-11-13T00:11:39.499Z,99.99
2022-11-13T00:12:39.619Z,99.99
2022-11-13T00:13:39.442Z,99.99
2022-11-13T00:14:39.385Z,99.99
2022-11-13T00:15:39.450Z,99.99
2022-11-13T00:16:39.360Z,99.99
2022-11-13T00:17:39.429Z,99.99
2022-11-13T00:18:39.335Z,99.99
2022-11-13T00:19:39.338Z,99.99
2022-11-13T00:20:39.509Z,99.99
2022-11-13T00:21:39.414Z,99.99
2022-11-13T00:22:39.332Z,99.99
2022-11-13T00:23:39.323Z,99.99
2022-11-13T00:24:39.283Z,99.99
2022-11-13T00:25:39.319Z,99.99
2022-11-13T00:26:39.251Z,99.99
2022-11-13T00:27:39.226Z,99.99
2022-11-13T00:28:39.327Z,99.99
2022-11-13T00:29:39.265Z,99.99
2022-11-13T00:30:39.248Z,99.99
2022-11-13T00:31:39.226Z,99.99
2022-11-13T00:32:39.190Z,99.99
2022-11-13T00:34:05.206Z,99.99
2022-11-13T00:34:48.499Z,99.99
2022-11-13T00:35:40.607Z,99.99
2022-11-13T00:36:39.152Z,99.99
2022-11-13T00:37:39.244Z,99.99
2022-11-13T00:38:39.125Z,99.99
2022-11-13T00:39:39.150Z,99.99
2022-11-13T00:40:39.125Z,99.99
2022-11-13T00:41:39.176Z,99.99
2022-11-13T00:42:39.082Z,99.99
2022-11-13T00:43:39.065Z,99.99
2022-11-13T00:44:39.058Z,99.99
2022-11-13T00:45:39.054Z,99.99
2022-11-13T00:46:39.035Z,99.99
2022-11-13T00:47:44.038Z,99.99
2022-11-13T00:48:39.026Z,99.99
2022-11-13T00:49:39.037Z,99.99
2022-11-13T00:50:39.001Z,99.99
2022-11-13T00:51:39.018Z,99.99
2022-11-13T00:52:39.025Z,99.99
2022-11-13T00:53:39.078Z,99.99
2022-11-13T00:54:38.942Z,99.99
2022-11-13T00:55:38.937Z,99.99
2022-11-13T00:56:38.925Z,99.99
2022-11-13T00:57:38.922Z,99.99
2022-11-13T00:58:38.968Z,99.99
2022-11-13T00:59:38.907Z,99.99
2022-11-13T01:00:38.890Z,99.99
2022-11-13T01:01:38.919Z,99.99
2022-11-13T01:02:38.917Z,99.99
2022-11-13T01:03:38.872Z,99.99
2022-11-13T01:04:38.876Z,99.99
2022-11-13T01:05:38.839Z,99.99
2022-11-13T01:06:38.875Z,99.99
2022-11-13T01:07:38.825Z,99.99
2022-11-13T01:08:38.845Z,99.99
2022-11-13T01:09:38.923Z,99.99
2022-11-13T01:10:38.802Z,99.99
2022-11-13T01:11:38.782Z,99.99
2022-11-13T01:12:38.780Z,99.99
2022-11-13T01:13:38.746Z,99.99
2022-11-13T01:14:38.741Z,99.99
2022-11-13T01:15:38.736Z,99.99
2022-11-13T01:16:38.720Z,99.99
2022-11-13T01:17:38.719Z,99.99
2022-11-13T01:18:38.784Z,99.99
2022-11-13T01:19:38.703Z,99.99
2022-11-13T01:20:38.692Z,99.99
2022-11-13T01:21:38.746Z,99.99
2022-11-13T01:22:38.679Z,99.99
2022-11-13T01:23:38.646Z,99.99
2022-11-13T01:24:38.673Z,99.99
2022-11-13T01:25:38.753Z,99.99
2022-11-13T01:26:38.652Z,99.99
2022-11-13T01:27:38.613Z,99.99
2022-11-13T01:28:38.606Z,99.99
2022-11-13T01:29:38.586Z,99.99
2022-11-13T01:30:38.570Z,99.99
2022-11-13T01:31:38.581Z,99.99
2022-11-13T01:32:38.553Z,99.99
2022-11-13T01:33:38.540Z,99.99
2022-11-13T01:34:38.560Z,99.99
2022-11-13T01:35:38.540Z,99.99
2022-11-13T01:36:38.515Z,99.99
2022-11-13T01:37:38.496Z,99.99
2022-11-13T01:38:38.670Z,99.99
2022-11-13T01:39:38.478Z,99.99
2022-11-13T01:40:38.505Z,99.99
2022-11-13T01:41:38.581Z,99.99
2022-11-13T01:42:38.480Z,99.99
2022-11-13T01:43:38.445Z,99.99
2022-11-13T01:44:38.529Z,99.99
2022-11-13T01:45:38.465Z,99.99
2022-11-13T01:46:38.459Z,99.99
2022-11-13T01:47:38.463Z,99.99
2022-11-13T01:48:38.402Z,99.99
2022-11-13T01:49:38.367Z,99.99
2022-11-13T01:50:38.372Z,99.99
2022-11-13T01:51:38.458Z,99.99
2022-11-13T01:52:38.424Z,99.99
2022-11-13T01:53:38.346Z,99.99
2022-11-13T01:54:38.318Z,99.99
2022-11-13T01:55:38.311Z,99.99
2022-11-13T01:56:38.297Z,99.99
2022-11-13T01:57:38.609Z,99.99
2022-11-13T01:58:38.290Z,99.99
2022-11-13T01:59:38.275Z,99.99
2022-11-13T02:00:38.276Z,99.99
2022-11-13T02:01:38.364Z,99.99
2022-11-13T02:02:38.280Z,99.99
2022-11-13T02:03:38.231Z,99.99
2022-11-13T02:04:38.284Z,99.99
2022-11-13T02:05:38.255Z,99.99
2022-11-13T02:06:38.266Z,99.99
2022-11-13T02:07:38.178Z,99.99
2022-11-13T02:08:38.200Z,99.99
2022-11-13T02:09:38.196Z,99.99
2022-11-13T02:10:38.186Z,99.99
2022-11-13T02:11:38.216Z,99.99
2022-11-13T02:12:38.128Z,99.99
2022-11-13T02:13:38.288Z,99.99
2022-11-13T02:14:38.157Z,99.99
2022-11-13T02:15:38.110Z,99.99
2022-11-13T02:16:38.112Z,99.99
2022-11-13T02:17:38.086Z,99.99
2022-11-13T02:18:38.135Z,99.99
2022-11-13T02:19:38.057Z,99.99
2022-11-13T02:20:38.075Z,99.99
2022-11-13T02:21:38.102Z,99.99
2022-11-13T02:22:38.037Z,99.99
2022-11-13T02:23:38.020Z,99.99
2022-11-13T02:24:40.189Z,99.99
2022-11-13T02:25:39.051Z,99.99
2022-11-13T02:26:37.979Z,99.99
2022-11-13T02:27:37.971Z,99.99
2022-11-13T02:28:38.042Z,99.99
2022-11-13T02:29:38.071Z,99.99
2022-11-13T02:30:37.939Z,99.99
2022-11-13T02:31:38.018Z,99.99
2022-11-13T02:32:37.919Z,99.99
2022-11-13T02:33:37.910Z,99.99
2022-11-13T02:34:37.903Z,99.99
2022-11-13T02:35:37.898Z,99.99
2022-11-13T02:36:37.876Z,99.99
2022-11-13T02:37:37.920Z,99.99
2022-11-13T02:38:37.869Z,99.99
2022-11-13T02:39:37.883Z,99.99
2022-11-13T02:40:37.838Z,99.99
2022-11-13T02:41:37.819Z,99.99
2022-11-13T02:42:37.815Z,99.99
2022-11-13T02:43:37.814Z,99.99
2022-11-13T02:44:37.916Z,99.99
2022-11-13T02:45:37.935Z,99.99
2022-11-13T02:46:37.773Z,99.99
2022-11-13T02:47:37.771Z,99.99
2022-11-13T02:48:37.767Z,99.99
2022-11-13T02:49:45.337Z,99.99
2022-11-13T02:50:37.776Z,99.99
2022-11-13T02:51:37.720Z,99.99
2022-11-13T02:52:37.749Z,99.99
2022-11-13T02:53:37.697Z,99.99
2022-11-13T02:54:37.692Z,99.99
2022-11-13T02:55:37.776Z,99.99
2022-11-13T02:56:37.696Z,99.99
2022-11-13T02:57:37.705Z,99.99
2022-11-13T02:58:37.738Z,99.99
2022-11-13T02:59:37.645Z,99.99
2022-11-13T03:00:37.633Z,99.99
2022-11-13T03:01:37.789Z,99.99
2022-11-13T03:02:37.637Z,99.99
2022-11-13T03:05:10.304Z,99.99
2022-11-13T03:05:38.575Z,99.99
2022-11-13T03:06:37.652Z,99.99
2022-11-13T03:07:37.608Z,99.99
2022-11-13T03:08:38.116Z,99.99
2022-11-13T03:09:37.548Z,99.99
2022-11-13T03:10:37.523Z,99.99
2022-11-13T03:11:37.510Z,99.99
2022-11-13T03:12:37.508Z,99.99
2022-11-13T03:13:37.577Z,99.99
2022-11-13T03:14:37.515Z,99.99
2022-11-13T03:15:37.483Z,99.99
2022-11-13T03:16:37.460Z,99.99
2022-11-13T03:17:52.176Z,99.99
2022-11-13T03:18:37.467Z,99.99
2022-11-13T03:19:37.486Z,99.99
2022-11-13T03:20:37.409Z,99.99
2022-11-13T03:21:37.426Z,99.99
2022-11-13T03:22:37.443Z,99.99
2022-11-13T03:23:37.440Z,99.99
2022-11-13T03:24:37.385Z,99.99
2022-11-13T03:25:37.372Z,99.99
2022-11-13T03:26:37.384Z,99.99
2022-11-13T03:27:37.400Z,99.99
2022-11-13T03:28:37.446Z,99.99
2022-11-13T03:29:37.325Z,99.99
2022-11-13T03:30:37.393Z,99.99
2022-11-13T03:31:37.291Z,99.99
2022-11-13T03:32:37.317Z,99.99
2022-11-13T03:33:37.413Z,99.99
2022-11-13T03:34:37.344Z,99.99
2022-11-13T03:35:44.169Z,99.99
2022-11-13T03:36:38.254Z,99.99
2022-11-13T03:37:37.232Z,99.99
2022-11-13T03:38:37.249Z,99.99
2022-11-13T03:39:37.257Z,99.99
2022-11-13T03:40:37.201Z,99.99
2022-11-13T03:41:37.272Z,99.99
2022-11-13T03:42:37.201Z,99.99
2022-11-13T03:43:37.178Z,99.99
2022-11-13T03:44:37.201Z,99.99
2022-11-13T03:45:37.167Z,99.99
2022-11-13T03:46:37.239Z,99.99
2022-11-13T03:47:52.064Z,99.99
2022-11-13T03:48:37.122Z,99.99
2022-11-13T03:49:37.310Z,99.99
2022-11-13T03:50:40.362Z,99.99
2022-11-13T03:51:38.091Z,99.99
2022-11-13T03:52:37.091Z,99.99
2022-11-13T03:53:37.073Z,99.99
2022-11-13T03:54:37.069Z,99.99
2022-11-13T03:55:37.079Z,99.99
2022-11-13T03:56:37.033Z,99.99
2022-11-13T03:57:37.055Z,99.99
2022-11-13T03:58:40.098Z,99.99
2022-11-13T03:59:37.004Z,99.99
2022-11-13T04:00:37.007Z,99.99
2022-11-13T04:01:37.144Z,99.99
2022-11-13T04:02:36.969Z,99.99
2022-11-13T04:03:37.058Z,99.99
2022-11-13T04:04:36.950Z,99.99
2022-11-13T04:05:37.057Z,99.99
2022-11-13T04:06:37.023Z,99.99
2022-11-13T04:07:36.929Z,99.99
2022-11-13T04:08:36.936Z,99.99
2022-11-13T04:09:37.668Z,99.99
2022-11-13T04:10:36.890Z,99.99
2022-11-13T04:11:36.885Z,99.99
2022-11-13T04:12:36.911Z,99.99
2022-11-13T04:13:36.860Z,99.99
2022-11-13T04:14:36.859Z,99.99
2022-11-13T04:15:36.895Z,99.99
2022-11-13T04:16:36.830Z,99.99
2022-11-13T04:17:36.825Z,99.99
2022-11-13T04:18:36.838Z,99.99
2022-11-13T04:19:36.803Z,99.99
2022-11-13T04:20:36.783Z,99.99
2022-11-13T04:21:36.889Z,99.99
2022-11-13T04:22:36.765Z,99.99
2022-11-13T04:23:36.777Z,99.99
2022-11-13T04:24:36.758Z,99.99
2022-11-13T04:25:36.734Z,99.99
2022-11-13T04:26:36.725Z,99.99
2022-11-13T04:27:36.706Z,99.99
2022-11-13T04:28:36.699Z,99.99
2022-11-13T04:29:36.761Z,99.99
2022-11-13T04:30:36.700Z,99.99
2022-11-13T04:31:36.696Z,99.99
2022-11-13T04:32:36.658Z,99.99
2022-11-13T04:33:36.652Z,99.99
2022-11-13T04:34:36.686Z,99.99
2022-11-13T04:35:36.670Z,99.99
2022-11-13T04:36:36.662Z,99.99
2022-11-13T04:37:36.742Z,99.99
2022-11-13T04:38:36.619Z,99.99
2022-11-13T04:39:36.594Z,99.99
2022-11-13T04:40:36.650Z,99.99
2022-11-13T04:41:36.571Z,99.99
2022-11-13T04:42:36.558Z,99.99
2022-11-13T04:43:36.533Z,99.99
2022-11-13T04:44:36.527Z,99.99
2022-11-13T04:45:36.561Z,99.99
2022-11-13T04:46:36.505Z,99.99
2022-11-13T04:47:41.079Z,99.99
2022-11-13T04:48:36.526Z,99.99
2022-11-13T04:49:36.539Z,99.99
2022-11-13T04:50:36.483Z,99.99
2022-11-13T04:51:36.461Z,99.99
2022-11-13T04:52:36.455Z,99.99
2022-11-13T04:53:36.648Z,99.99
2022-11-13T04:54:36.449Z,99.99
2022-11-13T04:55:36.428Z,99.99
2022-11-13T04:56:36.407Z,99.99
2022-11-13T04:57:36.412Z,99.99
2022-11-13T04:58:36.379Z,99.99
2022-11-13T04:59:36.412Z,99.99
2022-11-13T05:00:36.363Z,99.99
2022-11-13T05:01:36.480Z,99.99
2022-11-13T05:02:36.344Z,99.99
2022-11-13T05:03:36.617Z,99.99
2022-11-13T05:04:36.378Z,99.99
2022-11-13T05:05:36.323Z,99.99
2022-11-13T05:06:36.481Z,99.99
2022-11-13T05:07:36.283Z,99.99
2022-11-13T05:08:36.280Z,99.99
2022-11-13T05:09:36.423Z,99.99
2022-11-13T05:10:36.286Z,99.99
2022-11-13T05:11:36.243Z,99.99
2022-11-13T05:12:36.247Z,99.99
2022-11-13T05:13:36.224Z,99.99
2022-11-13T05:14:36.222Z,99.99
2022-11-13T05:15:36.272Z,99.99
2022-11-13T05:16:36.218Z,99.99
2022-11-13T05:17:36.183Z,99.99
2022-11-13T05:18:36.178Z,99.99
2022-11-13T05:19:36.180Z,99.99
2022-11-13T05:20:36.186Z,99.99
2022-11-13T05:21:36.144Z,99.99
2022-11-13T05:22:36.135Z,99.99
2022-11-13T05:23:36.116Z,99.99
2022-11-13T05:24:36.139Z,99.99
2022-11-13T05:25:36.230Z,99.99
2022-11-13T05:26:36.109Z,99.99
2022-11-13T05:27:36.097Z,99.99
2022-11-13T05:28:36.077Z,99.99
2022-11-13T05:29:36.057Z,99.99
2022-11-13T05:30:36.075Z,99.99
2022-11-13T05:31:36.037Z,99.99
2022-11-13T05:32:36.028Z,99.99
2022-11-13T05:33:36.115Z,99.99
2022-11-13T05:34:36.025Z,99.99
2022-11-13T05:35:35.992Z,99.99
2022-11-13T05:36:36.029Z,99.99
2022-11-13T05:37:36.038Z,99.99
2022-11-13T05:38:35.971Z,99.99
2022-11-13T05:39:35.952Z,99.99
2022-11-13T05:40:36.099Z,99.99
2022-11-13T05:41:36.043Z,99.99
2022-11-13T05:42:35.932Z,99.99
2022-11-13T05:43:35.917Z,99.99
2022-11-13T05:44:35.903Z,99.99
2022-11-13T05:45:35.922Z,99.99
2022-11-13T05:46:35.944Z,99.99
2022-11-13T05:47:35.955Z,99.99
2022-11-13T05:48:35.892Z,99.99
2022-11-13T05:49:36.079Z,99.99
2022-11-13T05:50:35.834Z,99.99
2022-11-13T05:51:35.907Z,99.99
2022-11-13T05:52:35.818Z,99.99
2022-11-13T05:53:35.806Z,99.99
2022-11-13T05:54:35.796Z,99.99
2022-11-13T05:55:35.781Z,99.99
2022-11-13T05:56:35.803Z,99.99
2022-11-13T05:57:35.904Z,99.99
2022-11-13T05:58:35.789Z,99.99
2022-11-13T05:59:35.744Z,99.99
2022-11-13T06:00:35.759Z,99.99
2022-11-13T06:01:35.804Z,99.99
2022-11-13T06:02:35.748Z,99.99
2022-11-13T06:03:35.716Z,99.99
2022-11-13T06:04:35.754Z,99.99
2022-11-13T06:05:35.680Z,99.99
2022-11-13T06:06:35.753Z,99.99
2022-11-13T06:07:35.736Z,99.99
2022-11-13T06:08:36.583Z,99.99
2022-11-13T06:09:35.749Z,99.99
2022-11-13T06:10:35.655Z,99.99
2022-11-13T06:11:35.648Z,99.99
2022-11-13T06:12:35.648Z,99.99
2022-11-13T06:13:35.779Z,99.99
2022-11-13T06:14:35.748Z,99.99
2022-11-13T06:15:35.618Z,99.99
2022-11-13T06:16:35.607Z,99.99
2022-11-13T06:17:35.589Z,99.99
2022-11-13T06:18:35.640Z,99.99
2022-11-13T06:19:35.620Z,99.99
2022-11-13T06:20:35.525Z,99.99
2022-11-13T06:21:44.131Z,99.99
2022-11-13T06:22:35.505Z,99.99
2022-11-13T06:23:35.484Z,99.99
2022-11-13T06:24:35.485Z,99.99
2022-11-13T06:25:35.470Z,99.99
2022-11-13T06:26:35.502Z,99.99
2022-11-13T06:27:35.498Z,99.99
2022-11-13T06:28:35.462Z,99.99
2022-11-13T06:29:35.546Z,99.99
2022-11-13T06:30:35.445Z,99.99
2022-11-13T06:31:35.404Z,99.99
2022-11-13T06:32:35.437Z,99.99
2022-11-13T06:33:35.420Z,99.99
2022-11-13T06:34:35.394Z,99.99
2022-11-13T06:35:35.369Z,99.99
2022-11-13T06:36:35.373Z,99.99
2022-11-13T06:37:35.361Z,99.99
2022-11-13T06:38:35.416Z,99.99
2022-11-13T06:39:35.342Z,99.99
2022-11-13T06:40:35.330Z,99.99
2022-11-13T06:41:35.300Z,99.99
2022-11-13T06:42:35.296Z,99.99
2022-11-13T06:43:35.312Z,99.99
2022-11-13T06:44:35.265Z,99.99
2022-11-13T06:45:35.379Z,99.99
2022-11-13T06:46:35.266Z,99.99
2022-11-13T06:47:35.245Z,99.99
2022-11-13T06:48:35.273Z,99.99
2022-11-13T06:49:35.297Z,99.99
2022-11-13T06:50:35.215Z,99.99
2022-11-13T06:51:35.197Z,99.99
2022-11-13T06:52:35.216Z,99.99
2022-11-13T06:53:35.242Z,99.99
2022-11-13T06:54:35.205Z,99.99
2022-11-13T06:55:35.176Z,99.99
2022-11-13T06:56:35.150Z,99.99
2022-11-13T06:57:35.146Z,99.99
2022-11-13T06:58:35.136Z,99.99
2022-11-13T06:59:35.114Z,99.99
2022-11-13T07:00:37.540Z,99.99
2022-11-13T07:01:35.264Z,99.99
2022-11-13T07:02:35.103Z,99.99
2022-11-13T07:03:35.075Z,99.99
2022-11-13T07:04:35.107Z,99.99
2022-11-13T07:05:35.099Z,99.99
2022-11-13T07:06:40.188Z,99.99
2022-11-13T07:07:36.029Z,99.99
2022-11-13T07:08:35.111Z,99.99
2022-11-13T07:09:35.004Z,99.99
2022-11-13T07:10:34.994Z,99.99
2022-11-13T07:11:35.126Z,99.99
2022-11-13T07:12:34.999Z,99.99
2022-11-13T07:13:34.994Z,99.99
2022-11-13T07:14:35.030Z,99.99
2022-11-13T07:15:34.972Z,99.99
2022-11-13T07:17:04.178Z,99.99
2022-11-13T07:17:36.138Z,99.99
2022-11-13T07:18:34.907Z,99.99
2022-11-13T07:19:34.913Z,99.99
2022-11-13T07:20:34.903Z,99.99
2022-11-13T07:21:35.003Z,99.99
2022-11-13T07:22:34.882Z,99.99
2022-11-13T07:23:34.934Z,99.99
2022-11-13T07:24:34.892Z,99.99
2022-11-13T07:25:34.853Z,99.99
2022-11-13T07:26:34.846Z,99.99
2022-11-13T07:27:34.842Z,99.99
2022-11-13T07:28:34.808Z,99.99
2022-11-13T07:29:34.827Z,99.99
2022-11-13T07:30:34.836Z,99.99
2022-11-13T07:31:35.697Z,99.99
2022-11-13T07:32:42.450Z,99.99
2022-11-13T07:33:34.756Z,99.99
2022-11-13T07:34:35.144Z,99.99
2022-11-13T07:35:34.778Z,99.99
2022-11-13T07:36:34.740Z,99.99
2022-11-13T07:37:34.712Z,99.99
2022-11-13T07:38:34.714Z,99.99
2022-11-13T07:39:34.698Z,99.99
2022-11-13T07:40:34.704Z,99.99
2022-11-13T07:41:34.678Z,99.99
2022-11-13T07:42:34.683Z,99.99
2022-11-13T07:43:34.716Z,99.99
2022-11-13T07:44:53.531Z,99.99
2022-11-13T07:45:35.674Z,99.99
2022-11-13T07:46:34.640Z,99.99
2022-11-13T07:47:34.608Z,99.99
2022-11-13T07:48:34.745Z,99.99
2022-11-13T07:49:34.581Z,99.99
2022-11-13T07:50:34.583Z,99.99
2022-11-13T07:51:34.639Z,99.99
2022-11-13T07:52:34.557Z,99.99
2022-11-13T07:53:34.554Z,99.99
2022-11-13T07:54:34.532Z,99.99
2022-11-13T07:55:34.522Z,99.99
2022-11-13T07:56:34.518Z,99.99
2022-11-13T07:57:34.552Z,99.99
2022-11-13T07:58:34.490Z,99.99
2022-11-13T07:59:34.486Z,99.99
2022-11-13T08:00:34.464Z,99.99
2022-11-13T08:01:34.520Z,99.99
2022-11-13T08:02:34.453Z,99.99
2022-11-13T08:03:34.461Z,99.99
2022-11-13T08:04:34.601Z,99.99
2022-11-13T08:05:34.443Z,99.99
2022-11-13T08:06:34.408Z,99.99
2022-11-13T08:07:34.392Z,99.99
2022-11-13T08:08:34.387Z,99.99
2022-11-13T08:09:34.375Z,99.99
2022-11-13T08:10:34.416Z,99.99
2022-11-13T08:11:34.350Z,99.99
2022-11-13T08:12:34.374Z,99.99
2022-11-13T08:13:34.373Z,99.99
2022-11-13T08:14:34.323Z,99.99
2022-11-13T08:15:34.321Z,99.99
2022-11-13T08:16:34.311Z,99.99
2022-11-13T08:17:39.131Z,99.99
2022-11-13T08:18:34.278Z,99.99
2022-11-13T08:19:34.268Z,99.99
2022-11-13T08:20:34.372Z,99.99
2022-11-13T08:21:34.292Z,99.99
2022-11-13T08:22:34.245Z,99.99
2022-11-13T08:23:34.258Z,99.99
2022-11-13T08:24:34.326Z,99.99
2022-11-13T08:25:34.201Z,99.99
2022-11-13T08:26:34.198Z,99.99
2022-11-13T08:27:34.221Z,99.99
2022-11-13T08:28:34.190Z,99.99
2022-11-13T08:29:34.187Z,99.99
2022-11-13T08:30:34.151Z,99.99
2022-11-13T08:31:34.164Z,99.99
2022-11-13T08:32:34.152Z,99.99
2022-11-13T08:33:34.251Z,99.99
2022-11-13T08:34:34.126Z,99.99
2022-11-13T08:35:34.108Z,99.99
2022-11-13T08:36:34.258Z,99.99
2022-11-13T08:37:34.097Z,99.99
2022-11-13T08:38:34.069Z,99.99
2022-11-13T08:39:34.052Z,99.99
2022-11-13T08:40:34.079Z,99.99
2022-11-13T08:41:34.034Z,99.99
2022-11-13T08:42:34.056Z,99.99
2022-11-13T08:43:34.027Z,99.99
2022-11-13T08:44:34.018Z,99.99
2022-11-13T08:45:33.996Z,99.99
2022-11-13T08:46:33.984Z,99.99
2022-11-13T08:47:34.009Z,99.99
2022-11-13T08:48:33.967Z,99.99
2022-11-13T08:49:33.970Z,99.99
2022-11-13T08:50:33.939Z,99.99
2022-11-13T08:51:33.951Z,99.99
2022-11-13T08:52:34.057Z,99.99
2022-11-13T08:53:33.939Z,99.99
2022-11-13T08:54:33.924Z,99.99
2022-11-13T08:55:33.899Z,99.99
2022-11-13T08:56:33.883Z,99.99
2022-11-13T08:57:33.902Z,99.99
2022-11-13T08:58:33.895Z,99.99
2022-11-13T08:59:33.852Z,99.99
2022-11-13T09:00:33.835Z,99.99
2022-11-13T09:01:34.166Z,99.99
2022-11-13T09:02:33.830Z,99.99
2022-11-13T09:03:33.871Z,99.99
2022-11-13T09:04:33.793Z,99.99
2022-11-13T09:05:33.789Z,99.99
2022-11-13T09:06:33.808Z,99.99
2022-11-13T09:07:33.823Z,99.99
2022-11-13T09:08:33.871Z,99.99
2022-11-13T09:09:33.737Z,99.99
2022-11-13T09:10:33.733Z,99.99
2022-11-13T09:11:33.767Z,99.99
2022-11-13T09:12:33.703Z,99.99
2022-11-13T09:13:33.706Z,99.99
2022-11-13T09:14:33.693Z,99.99
2022-11-13T09:15:33.672Z,99.99
2022-11-13T09:16:33.661Z,99.99
2022-11-13T09:17:33.708Z,99.99
2022-11-13T09:18:33.655Z,99.99
2022-11-13T09:19:33.699Z,99.99
2022-11-13T09:20:33.639Z,99.99
2022-11-13T09:21:33.611Z,99.99
2022-11-13T09:22:33.651Z,99.99
2022-11-13T09:23:33.591Z,99.99
2022-11-13T09:24:33.751Z,99.99
2022-11-13T09:25:37.213Z,99.99
2022-11-13T09:26:33.587Z,99.99
2022-11-13T09:27:33.549Z,99.99
2022-11-13T09:28:33.552Z,99.99
2022-11-13T09:29:33.527Z,99.99
2022-11-13T09:30:33.688Z,99.99
2022-11-13T09:31:33.509Z,99.99
2022-11-13T09:32:33.511Z,99.99
2022-11-13T09:33:33.526Z,99.99
2022-11-13T09:34:33.470Z,99.99
2022-11-13T09:35:33.487Z,99.99
2022-11-13T09:36:33.450Z,99.99
2022-11-13T09:37:33.459Z,99.99
2022-11-13T09:38:33.432Z,99.99
2022-11-13T09:39:33.426Z,99.99
2022-11-13T09:40:33.612Z,99.99
2022-11-13T09:41:33.677Z,99.99
2022-11-13T09:42:33.393Z,99.99
2022-11-13T09:43:33.382Z,99.99
2022-11-13T09:44:33.386Z,99.99
2022-11-13T09:45:33.428Z,99.99
2022-11-13T09:46:33.344Z,99.99
2022-11-13T09:47:33.348Z,99.99
2022-11-13T09:48:33.327Z,99.77
2022-11-13T09:49:33.324Z,99.99
2022-11-13T09:50:33.326Z,99.66
2022-11-13T09:51:33.302Z,99.99
2022-11-13T09:52:33.314Z,99.66
2022-11-13T09:53:33.284Z,99.56
2022-11-13T09:54:33.269Z,99.99
2022-11-13T09:55:33.266Z,99.77
2022-11-13T09:56:33.401Z,99.62
2022-11-13T09:57:33.260Z,99.52
2022-11-13T09:58:33.223Z,99.37
2022-11-13T09:59:33.254Z,98.85
2022-11-13T10:00:33.200Z,99.47
2022-11-13T10:01:33.248Z,99.37
2022-11-13T10:02:33.201Z,97.75
2022-11-13T10:03:54.193Z,99.00
2022-11-13T10:04:34.155Z,99.62
2022-11-13T10:05:33.159Z,99.72
2022-11-13T10:06:33.148Z,99.82
2022-11-13T10:07:33.159Z,99.16
2022-11-13T10:08:33.116Z,98.95
2022-11-13T10:09:33.175Z,97.86
2022-11-13T10:10:33.145Z,97.65
2022-11-13T10:11:33.092Z,99.35
2022-11-13T10:12:33.190Z,99.99
2022-11-13T10:13:33.078Z,99.99
2022-11-13T10:14:33.067Z,99.99
2022-11-13T10:15:33.075Z,98.74
2022-11-13T10:16:33.055Z,97.86
2022-11-13T10:17:33.036Z,98.85
2022-11-13T10:18:33.021Z,98.95
2022-11-13T10:19:33.033Z,98.02
2022-11-13T10:20:33.040Z,96.78
2022-11-13T10:21:32.990Z,96.78
2022-11-13T10:22:34.251Z,96.36
2022-11-13T10:23:33.021Z,96.47
2022-11-13T10:24:32.998Z,96.47
2022-11-13T10:25:32.940Z,96.26
2022-11-13T10:26:32.934Z,96.67
2022-11-13T10:27:32.997Z,96.05
2022-11-13T10:28:50.214Z,96.26
2022-11-13T10:29:33.911Z,96.62
2022-11-13T10:30:32.905Z,97.19
2022-11-13T10:31:32.876Z,97.09
2022-11-13T10:32:32.967Z,96.52
2022-11-13T10:33:32.930Z,96.21
2022-11-13T10:34:32.849Z,95.90
2022-11-13T10:35:32.831Z,95.80
2022-11-13T10:36:32.829Z,95.49
2022-11-13T10:37:32.809Z,95.59
2022-11-13T10:38:32.855Z,95.24
2022-11-13T10:39:32.871Z,94.14
2022-11-13T10:40:32.790Z,94.04
2022-11-13T10:41:32.810Z,94.35
2022-11-13T10:42:32.791Z,94.87
2022-11-13T10:43:33.060Z,93.68
2022-11-13T10:44:32.867Z,93.68
2022-11-13T10:45:33.174Z,93.99
2022-11-13T10:46:32.711Z,93.99
2022-11-13T10:48:33.711Z,94.24
2022-11-13T10:49:33.661Z,94.20
2022-11-13T10:50:32.682Z,94.16
2022-11-13T10:51:32.672Z,92.09
2022-11-13T10:52:32.652Z,92.50
2022-11-13T10:53:32.688Z,93.33
2022-11-13T10:54:32.668Z,93.02
2022-11-13T10:55:32.637Z,91.57
2022-11-13T10:56:32.611Z,92.19
2022-11-13T10:57:32.625Z,92.30
2022-11-13T10:58:32.965Z,90.64
2022-11-13T10:59:32.596Z,91.36
2022-11-13T11:00:32.598Z,91.84
2022-11-13T11:01:32.602Z,90.29
2022-11-13T11:02:32.543Z,90.08
2022-11-13T11:03:32.541Z,89.87
2022-11-13T11:04:32.568Z,89.98
2022-11-13T11:05:32.519Z,89.87
2022-11-13T11:07:04.487Z,89.67
2022-11-13T11:07:33.539Z,89.67
2022-11-13T11:08:32.626Z,89.50
2022-11-13T11:09:32.487Z,89.92
2022-11-13T11:10:32.468Z,89.19
2022-11-13T11:11:32.479Z,89.92
2022-11-13T11:12:32.481Z,90.29
2022-11-13T11:13:32.429Z,89.56
2022-11-13T11:14:32.420Z,90.14
2022-11-13T11:15:32.459Z,88.80
2022-11-13T11:16:32.513Z,88.07
2022-11-13T11:17:32.400Z,87.95
2022-11-13T11:18:32.581Z,90.02
2022-11-13T11:19:32.362Z,89.61
2022-11-13T11:20:32.441Z,88.74
2022-11-13T11:21:32.470Z,88.88
2022-11-13T11:22:32.367Z,88.94
2022-11-13T11:23:32.317Z,89.56
2022-11-13T11:24:32.312Z,88.43
2022-11-13T11:25:32.358Z,88.67
2022-11-13T11:26:32.380Z,89.71
2022-11-13T11:27:32.282Z,89.15
2022-11-13T11:28:32.427Z,88.94
2022-11-13T11:29:32.255Z,88.67
2022-11-13T11:30:32.249Z,89.71
2022-11-13T11:31:32.292Z,89.56
2022-11-13T11:32:32.343Z,89.22
2022-11-13T11:33:32.214Z,87.46
2022-11-13T11:34:32.222Z,88.43
2022-11-13T11:35:32.188Z,89.22
2022-11-13T11:36:32.223Z,87.97
2022-11-13T11:37:32.194Z,88.07
2022-11-13T11:38:32.506Z,88.14
2022-11-13T11:39:32.215Z,87.31
2022-11-13T11:40:32.139Z,86.76
2022-11-13T11:41:32.123Z,85.68
2022-11-13T11:42:32.106Z,84.96
2022-11-13T11:43:32.137Z,85.44
2022-11-13T11:44:32.091Z,84.72
2022-11-13T11:45:32.100Z,84.09
2022-11-13T11:46:32.105Z,84.41
2022-11-13T11:47:32.096Z,83.78
2022-11-13T11:48:32.457Z,84.57
2022-11-13T11:49:32.043Z,83.37
2022-11-13T11:50:32.048Z,85.33
2022-11-13T11:51:32.023Z,85.37
2022-11-13T11:52:32.001Z,86.69
2022-11-13T11:53:31.993Z,88.04
2022-11-13T11:54:32.010Z,88.28
2022-11-13T11:55:31.971Z,88.24
2022-11-13T11:56:31.984Z,88.04
2022-11-13T11:57:31.972Z,87.66
2022-11-13T11:58:32.222Z,90.29
2022-11-13T11:59:31.946Z,90.84
2022-11-13T12:00:31.921Z,90.84
2022-11-13T12:01:31.942Z,90.60
2022-11-13T12:02:31.930Z,90.91
2022-11-13T12:03:31.882Z,91.63
2022-11-13T12:04:31.993Z,90.45
2022-11-13T12:05:31.972Z,89.62
2022-11-13T12:06:31.899Z,89.48
2022-11-13T12:07:31.902Z,88.76
2022-11-13T12:08:32.196Z,89.54
2022-11-13T12:09:31.815Z,86.65
2022-11-13T12:10:31.872Z,87.21
2022-11-13T12:11:31.810Z,88.45
2022-11-13T12:12:31.794Z,87.48
2022-11-13T12:13:31.777Z,87.37
2022-11-13T12:14:31.788Z,88.28
2022-11-13T12:15:31.754Z,89.32
2022-11-13T12:16:31.769Z,89.38
2022-11-13T12:17:31.763Z,90.06
2022-11-13T12:18:31.907Z,88.10
2022-11-13T12:19:31.717Z,87.54
2022-11-13T12:20:31.867Z,88.16
2022-11-13T12:21:31.684Z,86.16
2022-11-13T12:22:31.708Z,86.98
2022-11-13T12:23:31.664Z,85.95
2022-11-13T12:24:31.665Z,86.10
2022-11-13T12:25:31.657Z,86.10
2022-11-13T12:26:31.638Z,86.10
2022-11-13T12:27:31.642Z,87.23
2022-11-13T12:28:32.126Z,87.40
2022-11-13T12:29:31.625Z,86.05
2022-11-13T12:30:31.624Z,86.20
2022-11-13T12:31:31.596Z,86.51
2022-11-13T12:32:31.574Z,87.54
2022-11-13T12:34:48.882Z,87.02
2022-11-13T12:35:49.024Z,87.48
2022-11-13T12:36:48.858Z,87.52
2022-11-13T12:37:48.938Z,88.59
2022-11-13T12:38:48.860Z,90.08
2022-11-13T12:39:48.862Z,90.60
2022-11-13T12:40:48.812Z,90.80
2022-11-13T12:41:48.818Z,90.25
2022-11-13T12:42:48.790Z,89.42
2022-11-13T12:43:48.784Z,90.14
2022-11-13T12:44:48.829Z,90.14
2022-11-13T12:45:48.768Z,89.17
2022-11-13T12:46:48.753Z,89.59
2022-11-13T12:47:49.403Z,89.13
2022-11-13T12:48:48.744Z,89.03
2022-11-13T12:49:48.734Z,88.20
2022-11-13T12:50:48.840Z,88.82
2022-11-13T12:51:48.820Z,88.71
2022-11-13T12:52:48.688Z,88.61
2022-11-13T12:53:48.676Z,88.47
2022-11-13T12:54:48.699Z,88.68
2022-11-13T12:55:48.688Z,88.37